Time;durP1;ratioP1;P1;durP2;ratioP2;P2;SDS_P1;SDS_P2;PMS_P1;PMS_P2;Temp;Humidity;BMP_temperature;BMP_pressure;BME280_temperature;BME280_humidity;BME280_pressure;Samples;Min_cycle;Max_cycle;Signal;HPM_P1;HPM_P2
2022/12/23 00:02:31;;;;;;;23.18;14.07;;;;;;;7.05;81.33;99367.89;2037730;87;29328;-65
2022/12/23 00:05:39;;;;;;;15.93;12.20;;;;;;;6.99;81.23;99366.40;2037142;87;27609;-65
2022/12/23 00:08:42;;;;;;;20.70;13.45;;;;;;;6.91;81.22;99370.78;2071423;85;29480;-67
2022/12/23 00:15:05;;;;;;;26.00;17.90;;;;;;;6.77;81.41;99370.59;1934449;91;33805;-67
2022/12/23 00:18:10;;;;;;;24.02;16.50;;;;;;;6.72;81.56;99368.17;1910837;93;29395;-68
2022/12/23 00:21:15;;;;;;;27.65;18.55;;;;;;;6.67;81.61;99377.72;1911196;93;27868;-65
2022/12/23 00:24:18;;;;;;;31.68;22.80;;;;;;;6.62;81.83;99373.08;1913021;91;29513;-66
2022/12/23 00:27:20;;;;;;;33.65;23.02;;;;;;;6.63;81.96;99373.92;1942154;91;32278;-64
2022/12/23 00:30:21;;;;;;;25.92;19.17;;;;;;;6.61;82.07;99368.69;1941882;91;33437;-65
2022/12/23 00:33:30;;;;;;;26.05;19.85;;;;;;;6.58;81.93;99363.51;1941885;91;30546;-63
2022/12/23 00:36:32;;;;;;;29.52;20.75;;;;;;;6.56;81.95;99365.86;1942032;91;27735;-66
2022/12/23 00:42:55;;;;;;;25.65;16.97;;;;;;;6.46;81.88;99374.27;1941769;91;32337;-66
2022/12/23 00:45:57;;;;;;;23.20;15.93;;;;;;;6.41;81.88;99378.08;1923087;91;33348;-66
2022/12/23 00:52:20;;;;;;;21.93;15.85;;;;;;;6.30;81.96;99379.47;2059045;85;27709;-64
2022/12/23 00:55:22;;;;;;;21.90;15.38;;;;;;;6.26;81.74;99374.37;2082583;85;28745;-65
2022/12/23 00:58:24;;;;;;;22.73;15.83;;;;;;;6.21;81.79;99370.56;2047371;87;31119;-65
2022/12/23 01:08:11;;;;;;;20.00;13.35;;;;;;;6.19;81.92;99373.31;2047769;86;28015;-67
2022/12/23 01:11:13;;;;;;;21.23;14.58;;;;;;;6.21;82.12;99363.92;2047952;86;28836;-66
2022/12/23 01:14:16;;;;;;;19.85;13.50;;;;;;;6.22;82.23;99363.87;2047548;86;32193;-64
2022/12/23 01:17:18;;;;;;;17.57;12.93;;;;;;;6.26;82.33;99353.09;2047787;86;33335;-64
2022/12/23 01:20:20;;;;;;;19.02;13.72;;;;;;;6.30;82.28;99349.33;2047517;87;30244;-66
2022/12/23 01:23:22;;;;;;;19.23;13.13;;;;;;;6.33;82.38;99346.53;2047900;86;27621;-65
2022/12/23 01:26:25;;;;;;;18.85;14.43;;;;;;;6.37;82.46;99343.64;2047330;87;29928;-66
2022/12/23 01:29:28;;;;;;;20.88;13.30;;;;;;;6.42;82.54;99330.59;2047510;87;31137;-64
2022/12/23 01:32:30;;;;;;;18.85;13.30;;;;;;;6.43;82.54;99326.55;2048015;86;33675;-65
2022/12/23 01:35:32;;;;;;;18.45;12.93;;;;;;;6.47;82.54;99323.27;2032843;86;30106;-64
2022/12/23 01:38:34;;;;;;;17.92;13.55;;;;;;;6.47;82.37;99316.13;2013119;88;27675;-65
2022/12/23 01:45:01;;;;;;;19.20;11.83;;;;;;;6.39;82.09;99303.20;2012984;87;30976;-66
2022/12/23 01:48:12;;;;;;;17.23;12.35;;;;;;;6.32;81.94;99303.12;1984429;88;33747;-63
2022/12/23 01:51:25;;;;;;;16.48;12.58;;;;;;;6.25;81.93;99299.50;2010807;87;29300;-67
2022/12/23 01:54:27;;;;;;;18.87;13.38;;;;;;;6.17;81.93;99297.20;2037884;87;27745;-64
2022/12/23 01:57:29;;;;;;;17.85;13.38;;;;;;;6.10;82.01;99303.73;2026608;87;29164;-64
2022/12/23 02:03:55;;;;;;;22.93;13.58;;;;;;;6.01;82.02;99306.36;2019066;88;34318;-63
2022/12/23 02:10:18;;;;;;;21.40;12.85;;;;;;;5.94;82.12;99308.42;2031183;87;27690;-64
2022/12/23 02:13:37;;;;;;;15.00;10.82;;;;;;;5.89;81.96;99303.33;2037440;87;28828;-64
2022/12/23 02:16:44;;;;;;;18.05;12.03;;;;;;;5.82;81.63;99303.68;2037593;87;31058;-65
2022/12/23 02:19:54;;;;;;;16.57;11.55;;;;;;;5.74;81.36;99305.36;2037668;87;33766;-65
2022/12/23 02:23:42;;;;;;;16.17;10.75;;;;;;;5.62;81.21;99302.34;2036428;87;30758;-63
2022/12/23 02:26:57;;;;;;;16.50;10.88;;;;;;;5.54;81.34;99299.16;2036307;87;27944;-63
2022/12/23 02:30:27;;;;;;;15.72;11.25;;;;;;;5.45;81.27;99301.76;2037890;87;28853;-64
2022/12/23 02:33:34;;;;;;;18.73;11.85;;;;;;;5.35;81.14;99288.95;2037406;87;32250;-64
2022/12/23 02:36:55;;;;;;;18.40;11.63;;;;;;;5.25;81.22;99295.13;2037921;87;32972;-65
2022/12/23 02:40:28;;;;;;;16.87;10.80;;;;;;;5.15;81.27;99291.56;2038547;87;30572;-66
2022/12/23 02:43:48;;;;;;;16.85;11.63;;;;;;;5.08;81.48;99288.77;2037911;87;27613;-65
2022/12/23 02:46:55;;;;;;;19.75;11.85;;;;;;;5.01;81.78;99283.34;2037523;87;29888;-64
2022/12/23 02:50:03;;;;;;;17.67;11.90;;;;;;;4.97;81.92;99285.72;2041076;86;32308;-64
2022/12/23 02:53:09;;;;;;;17.42;11.95;;;;;;;4.94;81.96;99289.38;2047890;86;33158;-67
2022/12/23 02:56:13;;;;;;;18.98;12.82;;;;;;;4.92;81.98;99285.05;2047993;86;30127;-64
2022/12/23 02:59:22;;;;;;;21.95;13.00;;;;;;;4.89;82.00;99284.73;2047865;85;27664;-64
2022/12/23 03:02:24;;;;;;;19.52;12.50;;;;;;;4.86;81.99;99287.06;2023179;86;28834;-66
2022/12/23 03:05:30;;;;;;;17.70;12.15;;;;;;;4.82;81.93;99288.11;2047372;87;31950;-64
2022/12/23 03:08:38;;;;;;;19.23;12.05;;;;;;;4.80;81.87;99291.77;2046022;85;32995;-66
2022/12/23 03:11:54;;;;;;;19.10;12.78;;;;;;;4.76;81.81;99287.51;2078699;85;30198;-64
2022/12/23 03:15:25;;;;;;;20.88;11.70;;;;;;;4.70;81.70;99292.13;2079245;85;27713;-66
2022/12/23 03:18:41;;;;;;;20.27;13.08;;;;;;;4.64;81.50;99284.89;2055819;85;29537;-64
2022/12/23 03:21:50;;;;;;;19.23;12.68;;;;;;;4.58;81.54;99295.30;1915124;92;31471;-64
2022/12/23 03:25:04;;;;;;;18.00;12.53;;;;;;;4.53;81.58;99290.20;1883539;92;34241;-65
2022/12/23 03:28:22;;;;;;;19.98;12.88;;;;;;;4.52;81.66;99296.42;1940919;90;29339;-64
2022/12/23 03:31:30;;;;;;;17.37;12.30;;;;;;;4.51;81.84;99295.14;1940318;91;27788;-64
2022/12/23 03:34:36;;;;;;;19.32;13.38;;;;;;;4.52;82.03;99296.88;1940398;91;29762;-64
2022/12/23 03:37:42;;;;;;;20.50;13.93;;;;;;;4.54;82.19;99295.91;1940860;90;31049;-64
2022/12/23 03:40:54;;;;;;;18.55;13.40;;;;;;;4.59;82.32;99286.87;1940610;91;32972;-64
2022/12/23 03:44:01;;;;;;;21.10;14.15;;;;;;;4.63;82.47;99285.37;1940536;91;29944;-63
2022/12/23 03:47:14;;;;;;;19.45;13.68;;;;;;;4.69;82.58;99281.12;1939395;90;28102;-63
2022/12/23 03:50:18;;;;;;;22.98;15.05;;;;;;;4.75;82.61;99285.78;1936838;91;29098;-64
2022/12/23 03:53:25;;;;;;;24.60;15.70;;;;;;;4.80;82.70;99282.00;1884568;94;31101;-66
2022/12/23 03:56:40;;;;;;;18.42;14.38;;;;;;;4.85;82.74;99276.49;1932950;92;33761;-64
2022/12/23 03:59:44;;;;;;;;;;;;;;;4.92;82.77;99279.73;1966451;90;29392;-64
2022/12/23 04:03:00;;;;;;;17.92;13.25;;;;;;;4.96;82.82;99280.89;2012186;88;27749;-67
2022/12/23 04:06:05;;;;;;;18.32;13.32;;;;;;;4.97;82.77;99278.61;2012548;88;28497;-64
2022/12/23 04:09:08;;;;;;;18.23;13.22;;;;;;;5.01;82.76;99279.36;2006349;87;31140;-64
2022/12/23 04:12:10;;;;;;;19.37;13.65;;;;;;;5.05;82.81;99270.80;2044902;87;33766;-64
2022/12/23 04:15:12;;;;;;;20.00;14.33;;;;;;;5.08;82.85;99268.86;2022448;87;30420;-64
2022/12/23 04:18:15;;;;;;;19.23;14.18;;;;;;;5.12;82.90;99262.49;2045473;87;27648;-65
2022/12/23 04:21:17;;;;;;;20.45;14.40;;;;;;;5.17;82.96;99265.81;2039089;87;28706;-63
2022/12/23 04:24:19;;;;;;;21.10;14.83;;;;;;;5.22;82.98;99268.71;2044750;87;32238;-67
2022/12/23 04:27:20;;;;;;;20.95;14.43;;;;;;;5.27;82.98;99272.91;2045237;87;33384;-63
2022/12/23 04:30:23;;;;;;;19.35;14.20;;;;;;;5.31;83.01;99263.85;2044751;87;29448;-67
2022/12/23 04:33:25;;;;;;;23.02;15.98;;;;;;;5.36;83.00;99262.34;2044555;87;27724;-64
2022/12/23 04:36:27;;;;;;;21.30;15.70;;;;;;;5.40;82.94;99259.92;2044712;87;29935;-65
2022/12/23 04:39:30;;;;;;;22.95;16.10;;;;;;;5.44;82.96;99254.87;2045106;87;31393;-67
2022/12/23 04:42:32;;;;;;;23.47;16.50;;;;;;;5.48;82.95;99255.14;2044657;87;34164;-66
2022/12/23 04:45:34;;;;;;;23.60;16.35;;;;;;;5.53;82.96;99244.30;2044729;87;30251;-65
2022/12/23 04:48:36;;;;;;;22.93;16.67;;;;;;;5.57;82.91;99245.01;2045185;87;28125;-64
2022/12/23 04:51:38;;;;;;;23.98;16.77;;;;;;;5.61;82.93;99235.97;2014487;87;29898;-67
2022/12/23 04:54:40;;;;;;;27.90;16.95;;;;;;;5.65;82.89;99236.69;1981014;89;32399;-64
2022/12/23 04:57:43;;;;;;;24.07;16.52;;;;;;;5.67;82.87;99233.05;1980988;89;34372;-65
2022/12/23 05:00:45;;;;;;;26.40;17.98;;;;;;;5.71;82.85;99225.78;1980989;89;30198;-64
2022/12/23 05:03:46;;;;;;;22.40;16.32;;;;;;;5.73;82.82;99220.77;1981422;89;27740;-66
2022/12/23 05:06:48;;;;;;;22.95;16.50;;;;;;;5.75;82.79;99224.70;1980981;89;29933;-64
2022/12/23 05:09:50;;;;;;;25.15;16.73;;;;;;;5.79;82.82;99224.97;1981113;88;32297;-67
2022/12/23 05:12:52;;;;;;;21.57;15.70;;;;;;;5.81;82.84;99223.06;1981099;89;34185;-63
2022/12/23 05:15:55;;;;;;;22.80;15.43;;;;;;;5.84;82.82;99220.27;2011331;88;30112;-67
2022/12/23 05:18:57;;;;;;;22.17;16.00;;;;;;;5.85;82.84;99219.34;1981408;89;27685;-64
2022/12/23 05:21:59;;;;;;;22.13;16.27;;;;;;;5.88;82.90;99216.54;1981348;89;29891;-65
2022/12/23 05:25:01;;;;;;;22.02;15.25;;;;;;;5.92;82.90;99215.92;2010902;88;32266;-65
2022/12/23 05:28:04;;;;;;;21.12;16.05;;;;;;;5.95;82.92;99213.59;1981325;88;34185;-65
2022/12/23 05:31:07;;;;;;;25.68;16.95;;;;;;;5.98;82.88;99208.98;1981159;89;29415;-65
2022/12/23 05:34:10;;;;;;;23.73;16.45;;;;;;;6.02;82.94;99215.04;2011236;88;27679;-65
2022/12/23 05:37:12;;;;;;;25.97;16.97;;;;;;;6.07;82.99;99207.71;1980863;89;29561;-65
2022/12/23 05:40:15;;;;;;;24.43;16.87;;;;;;;6.10;82.86;99206.69;1981152;89;30812;-65
2022/12/23 05:43:17;;;;;;;24.63;16.23;;;;;;;6.14;82.89;99210.93;1980810;89;34247;-65
2022/12/23 05:46:22;;;;;;;23.18;17.10;;;;;;;6.15;82.82;99198.03;1980825;89;30185;-65
2022/12/23 05:49:25;;;;;;;24.63;16.17;;;;;;;6.18;82.86;99201.39;1980779;89;27675;-65
2022/12/23 05:52:27;;;;;;;24.37;17.27;;;;;;;6.21;82.82;99207.02;2034825;87;29560;-65
2022/12/23 05:55:29;;;;;;;22.90;16.05;;;;;;;6.21;82.75;99206.56;2045553;87;31604;-66
2022/12/23 05:58:31;;;;;;;21.45;16.25;;;;;;;6.23;82.71;99211.34;2014630;88;34163;-66
2022/12/23 06:01:33;;;;;;;21.15;15.58;;;;;;;6.25;82.71;99203.27;2015011;88;29727;-68
2022/12/23 06:04:35;;;;;;;21.17;14.80;;;;;;;6.26;82.72;99206.33;2009691;88;27708;-68
2022/12/23 06:07:39;;;;;;;23.42;15.10;;;;;;;6.28;82.68;99205.78;2014779;88;29569;-66
2022/12/23 06:10:43;;;;;;;20.30;14.35;;;;;;;6.31;82.66;99203.43;2014974;88;31074;-68
2022/12/23 06:13:45;;;;;;;21.17;14.00;;;;;;;6.32;82.68;99206.03;2009864;88;33829;-67
2022/12/23 06:16:47;;;;;;;21.07;14.55;;;;;;;6.36;82.69;99214.71;2015078;88;30242;-67
2022/12/23 06:19:48;;;;;;;20.48;13.88;;;;;;;6.37;82.71;99219.95;2014777;88;28220;-67
2022/12/23 06:22:50;;;;;;;22.58;13.85;;;;;;;6.39;82.67;99220.73;2010019;88;29458;-68
2022/12/23 06:26:00;;;;;;;17.12;13.43;;;;;;;6.41;82.66;99227.33;2014774;88;31813;-65
2022/12/23 06:29:03;;;;;;;19.10;13.75;;;;;;;6.44;82.70;99222.31;2015147;88;34135;-66
2022/12/23 06:32:05;;;;;;;18.15;13.68;;;;;;;6.46;82.71;99221.28;2010011;88;29347;-65
2022/12/23 06:35:08;;;;;;;19.80;13.22;;;;;;;6.47;82.75;99216.84;2014772;88;27717;-65
2022/12/23 06:38:10;;;;;;;19.48;13.68;;;;;;;6.49;82.81;99218.96;2015012;88;28680;-67
2022/12/23 06:41:12;;;;;;;23.90;15.30;;;;;;;6.50;82.84;99214.88;2009688;88;31873;-66
2022/12/23 06:44:14;;;;;;;19.00;14.03;;;;;;;6.51;82.83;99217.94;2014652;88;34288;-64
2022/12/23 06:47:17;;;;;;;19.95;14.30;;;;;;;6.52;82.84;99214.82;2014806;88;29403;-66
2022/12/23 06:50:19;;;;;;;20.80;14.45;;;;;;;6.53;82.91;99218.72;2010011;87;27707;-66
2022/12/23 06:53:21;;;;;;;20.55;14.95;;;;;;;6.52;82.91;99216.15;2014890;88;30125;-68
2022/12/23 06:56:23;;;;;;;21.80;15.05;;;;;;;6.54;82.98;99223.11;2045876;87;31104;-66
2022/12/23 06:59:25;;;;;;;25.12;16.48;;;;;;;6.56;82.99;99222.17;2045618;86;34153;-66
2022/12/23 07:02:27;;;;;;;24.23;16.00;;;;;;;6.57;83.05;99213.25;2037910;87;30523;-65
2022/12/23 07:05:29;;;;;;;21.55;15.95;;;;;;;6.57;83.03;99212.77;2045695;87;27822;-66
2022/12/23 07:08:31;;;;;;;24.70;16.40;;;;;;;6.57;83.06;99218.09;2014818;88;28708;-66
2022/12/23 07:11:33;;;;;;;25.17;16.87;;;;;;;6.59;83.13;99214.04;2045634;86;32238;-65
2022/12/23 07:14:35;;;;;;;29.50;16.35;;;;;;;6.60;83.14;99217.94;2045624;87;34266;-65
2022/12/23 07:17:38;;;;;;;26.75;16.30;;;;;;;6.61;83.23;99216.16;2045954;87;30495;-65
2022/12/23 07:20:39;;;;;;;24.25;15.55;;;;;;;6.65;83.31;99223.89;2015088;88;27717;-65
2022/12/23 07:23:43;;;;;;;23.47;17.02;;;;;;;6.66;83.31;99219.42;2045985;87;29861;-64
2022/12/23 07:26:45;;;;;;;24.85;15.70;;;;;;;6.68;83.33;99215.77;2015093;88;31399;-63
2022/12/23 07:29:47;;;;;;;24.02;15.80;;;;;;;6.70;83.37;99219.66;2045648;87;34387;-67
2022/12/23 07:32:51;;;;;;;24.85;15.80;;;;;;;6.73;83.36;99222.63;2014607;88;30691;-68
2022/12/23 07:35:58;;;;;;;27.07;17.65;;;;;;;6.73;83.36;99219.97;2045560;86;27660;-69
2022/12/23 07:39:00;;;;;;;25.75;16.35;;;;;;;6.74;83.44;99213.70;1998699;88;27656;-67
2022/12/23 07:42:02;;;;;;;23.12;15.43;;;;;;;6.77;83.53;99211.77;1981293;89;31924;-66
2022/12/23 07:45:05;;;;;;;23.75;14.85;;;;;;;6.79;83.56;99204.53;1981215;89;34020;-69
2022/12/23 07:48:08;;;;;;;20.10;14.00;;;;;;;6.82;83.62;99207.53;1981358;89;29577;-66
2022/12/23 07:51:10;;;;;;;22.25;14.38;;;;;;;6.86;83.66;99207.77;1984860;88;27732;-66
2022/12/23 07:54:13;;;;;;;19.62;12.90;;;;;;;6.89;83.71;99208.91;2003528;88;28783;-67
2022/12/23 07:57:15;;;;;;;24.27;13.58;;;;;;;6.92;83.72;99217.23;2003032;88;32357;-67
2022/12/23 08:00:19;;;;;;;25.52;13.48;;;;;;;6.94;83.84;99220.20;2002997;88;34248;-65
2022/12/23 08:03:20;;;;;;;18.82;12.53;;;;;;;7.01;83.94;99221.22;2003281;88;29400;-65
2022/12/23 08:06:22;;;;;;;20.27;12.80;;;;;;;7.07;84.03;99216.87;2035327;85;28229;-66
2022/12/23 08:09:24;;;;;;;20.92;12.65;;;;;;;7.14;84.13;99214.30;2055019;86;29636;-67
2022/12/23 08:12:26;;;;;;;17.48;11.55;;;;;;;7.23;84.27;99215.61;2028831;87;32202;-65
2022/12/23 08:15:28;;;;;;;19.23;12.20;;;;;;;7.31;84.28;99213.38;2011365;88;33651;-65
2022/12/23 08:18:31;;;;;;;14.93;10.85;;;;;;;7.39;84.29;99209.84;2025951;87;28602;-64
2022/12/23 08:21:33;;;;;;;14.80;11.20;;;;;;;7.47;84.32;99206.77;2045044;86;27539;-66
2022/12/23 08:24:35;;;;;;;16.87;10.85;;;;;;;7.53;84.25;99201.56;2033674;86;29858;-66
2022/12/23 08:27:37;;;;;;;17.25;10.85;;;;;;;7.56;84.18;99195.59;2066126;86;31349;-65
2022/12/23 08:30:39;;;;;;;16.95;10.08;;;;;;;7.60;84.11;99190.97;2030502;87;34233;-66
2022/12/23 08:33:45;;;;;;;17.30;10.82;;;;;;;7.65;84.21;99200.87;2021590;87;30132;-65
2022/12/23 08:36:47;;;;;;;28.85;19.90;;;;;;;7.69;84.21;99198.44;1989889;88;27709;-65
2022/12/23 08:39:49;;;;;;;25.08;17.00;;;;;;;7.74;84.27;99202.17;2037314;87;29556;-66
2022/12/23 08:42:51;;;;;;;34.60;25.17;;;;;;;7.80;84.23;99205.84;2037758;87;30490;-66
2022/12/23 08:45:53;;;;;;;85.60;66.45;;;;;;;7.86;84.28;99200.63;2032742;87;33451;-65
2022/12/23 08:48:55;;;;;;;1469.90;703.05;;;;;;;7.93;84.27;99193.14;2000640;87;30017;-68
2022/12/23 08:51:57;;;;;;;691.17;392.52;;;;;;;7.95;84.12;99192.59;2077810;84;27726;-64
2022/12/23 08:54:59;;;;;;;602.88;411.82;;;;;;;7.98;84.09;99189.27;2103412;84;29996;-68
2022/12/23 08:58:01;;;;;;;136.60;119.08;;;;;;;8.03;84.12;99184.54;2103551;84;31720;-75
2022/12/23 09:01:05;;;;;;;40.45;23.40;;;;;;;8.07;84.07;99179.88;2104163;84;33550;-65
2022/12/23 09:04:08;;;;;;;21.27;12.10;;;;;;;8.12;84.06;99176.48;2117957;84;29977;-63
2022/12/23 09:07:10;;;;;;;20.40;11.40;;;;;;;8.20;84.13;99176.03;2117794;84;28285;-63
2022/12/23 09:10:12;;;;;;;17.55;11.18;;;;;;;8.29;84.17;99175.48;2081843;85;28838;-64
2022/12/23 09:13:14;;;;;;;14.05;9.38;;;;;;;8.38;84.10;99179.42;2081428;85;31652;-64
2022/12/23 09:16:18;;;;;;;13.05;9.88;;;;;;;8.45;84.02;99178.59;2081367;85;33837;-63
2022/12/23 09:19:20;;;;;;;11.53;8.20;;;;;;;8.53;84.01;99179.04;2075771;85;29391;-64
2022/12/23 09:22:23;;;;;;;10.88;6.92;;;;;;;8.61;83.92;99182.09;2096790;84;27699;-65
2022/12/23 09:25:25;;;;;;;13.40;9.93;;;;;;;8.71;83.91;99185.08;2047214;87;29834;-64
2022/12/23 09:28:28;;;;;;;14.20;9.55;;;;;;;8.80;83.93;99181.00;2082363;85;32310;-64
2022/12/23 09:31:30;;;;;;;16.40;8.70;;;;;;;8.90;83.84;99175.95;2079295;85;32981;-64
2022/12/23 09:34:32;;;;;;;14.80;7.75;;;;;;;8.98;83.85;99180.38;2046964;87;30508;-63
2022/12/23 09:37:36;;;;;;;12.50;7.42;;;;;;;9.07;83.75;99178.95;2067135;84;27995;-64
2022/12/23 09:40:39;;;;;;;12.82;7.30;;;;;;;9.10;83.41;99181.44;2047962;85;28772;-65
2022/12/23 09:44:05;;;;;;;13.28;7.90;;;;;;;9.12;83.19;99184.39;2051796;85;31010;-65
2022/12/23 09:47:14;;;;;;;13.08;7.95;;;;;;;9.09;82.82;99183.23;1950132;90;32891;-63
2022/12/23 09:50:24;;;;;;;11.88;6.55;;;;;;;9.09;83.04;99178.37;1976118;88;29029;-64
2022/12/23 09:53:50;;;;;;;12.40;7.62;;;;;;;9.11;82.90;99181.79;1994916;88;27772;-64
2022/12/23 09:57:17;;;;;;;14.83;8.38;;;;;;;9.11;82.96;99177.78;2013485;87;29940;-64
2022/12/23 10:00:22;;;;;;;12.47;7.85;;;;;;;9.15;83.04;99175.80;2004882;88;32278;-63
2022/12/23 10:03:28;;;;;;;11.55;7.90;;;;;;;9.19;83.00;99179.98;2005244;88;32971;-63
2022/12/23 10:06:33;;;;;;;18.57;8.35;;;;;;;9.20;82.89;99181.23;2005019;87;28382;-63
2022/12/23 10:09:39;;;;;;;14.45;8.78;;;;;;;9.22;82.81;99179.80;2010268;87;27805;-64
2022/12/23 10:12:46;;;;;;;18.17;11.03;;;;;;;9.22;82.74;99175.78;2005160;87;28730;-64
2022/12/23 10:15:48;;;;;;;25.48;15.65;;;;;;;9.22;82.70;99181.12;2004734;87;31057;-63
2022/12/23 10:19:10;;;;;;;21.33;12.10;;;;;;;9.25;82.84;99180.94;1995782;88;34292;-62
2022/12/23 10:22:41;;;;;;;19.05;12.78;;;;;;;9.26;82.73;99182.20;2004798;88;30521;-63
2022/12/23 10:25:50;;;;;;;16.52;10.43;;;;;;;9.25;82.60;99175.14;2047641;85;27833;-64
2022/12/23 10:29:15;;;;;;;15.78;9.30;;;;;;;9.27;82.77;99178.55;2047188;86;28678;-64
2022/12/23 10:32:28;;;;;;;14.30;9.23;;;;;;;9.33;82.81;99177.79;1949605;89;31081;-66
2022/12/23 10:36:02;;;;;;;15.32;9.28;;;;;;;9.38;82.91;99177.03;1973860;89;33441;-65
2022/12/23 10:39:29;;;;;;;18.48;10.30;;;;;;;9.45;83.04;99174.34;1920496;91;29281;-66
2022/12/23 10:42:35;;;;;;;20.45;10.55;;;;;;;9.50;82.93;99173.58;1962846;90;27786;-68
2022/12/23 10:46:22;;;;;;;18.30;10.43;;;;;;;9.52;82.76;99170.80;1917211;91;28774;-68
2022/12/23 10:49:29;;;;;;;;;;;;;;;9.52;82.76;99169.45;1969857;89;31652;-66
2022/12/23 10:52:34;;;;;;;17.27;9.85;;;;;;;9.54;82.71;99172.89;1940501;91;34164;-66
2022/12/23 10:55:37;;;;;;;;;;;;;;;9.54;82.71;99173.77;1930605;92;30553;-68
2022/12/23 10:58:42;;;;;;;10.15;7.17;;;;;;;9.56;82.75;99181.22;1960860;90;27777;-68
2022/12/23 11:01:46;;;;;;;11.93;7.35;;;;;;;9.58;82.72;99181.11;1952379;90;28718;-68
2022/12/23 11:04:49;;;;;;;12.33;7.60;;;;;;;9.60;82.65;99178.36;1960817;90;32250;-67
2022/12/23 11:07:51;;;;;;;11.25;6.00;;;;;;;9.61;82.66;99172.90;1977556;85;33741;-67
2022/12/23 11:10:54;;;;;;;9.18;6.03;;;;;;;9.63;82.62;99177.67;2072025;85;30498;-66
2022/12/23 11:13:56;;;;;;;10.80;6.12;;;;;;;9.66;82.60;99175.27;2073461;85;27768;-66
2022/12/23 11:17:00;;;;;;;10.95;5.97;;;;;;;9.69;82.54;99189.30;2074033;85;29847;-66
2022/12/23 11:20:14;;;;;;;6.97;4.33;;;;;;;9.73;82.48;99185.97;2074123;85;31112;-67
2022/12/23 11:23:28;;;;;;;10.65;5.85;;;;;;;9.76;82.44;99185.78;2073808;85;32982;-71
2022/12/23 11:26:31;;;;;;;9.48;5.83;;;;;;;9.78;82.43;99189.67;2074272;85;35291;-74
2022/12/23 11:29:36;;;;;;;13.30;5.53;;;;;;;9.82;82.48;99189.87;2072398;85;27827;-67
2022/12/23 11:32:38;;;;;;;12.05;5.50;;;;;;;9.88;82.43;99181.42;2074143;85;29540;-67
2022/12/23 11:35:40;;;;;;;14.58;7.30;;;;;;;9.92;82.33;99188.30;2034228;85;32226;-68
2022/12/23 11:39:08;;;;;;;11.45;6.78;;;;;;;9.94;82.27;99191.73;2073604;85;33818;-66
2022/12/23 11:42:21;;;;;;;12.88;9.68;;;;;;;9.98;82.33;99183.02;2072938;85;29349;-70
2022/12/23 11:45:28;;;;;;;9.25;5.45;;;;;;;10.01;82.21;99187.69;2071544;85;27637;-68
2022/12/23 11:48:30;;;;;;;9.43;5.05;;;;;;;10.06;82.23;99184.73;2073998;85;29487;-69
2022/12/23 11:51:32;;;;;;;6.40;4.25;;;;;;;10.09;82.10;99180.98;2073518;85;31022;-67
2022/12/23 11:54:33;;;;;;;6.12;3.83;;;;;;;10.12;82.18;99182.13;2079705;84;33187;-67
2022/12/23 11:57:42;;;;;;;5.78;3.40;;;;;;;10.17;82.25;99170.65;2083112;84;29382;-66
2022/12/23 12:00:55;;;;;;;6.35;4.17;;;;;;;10.21;82.14;99175.31;2082359;85;27661;-68
2022/12/23 12:04:05;;;;;;;7.35;4.15;;;;;;;10.24;82.12;99170.61;2081991;85;28714;-67
2022/12/23 12:07:11;;;;;;;5.62;3.15;;;;;;;10.32;82.19;99168.28;2078470;84;31888;-68
2022/12/23 12:10:26;;;;;;;7.90;3.98;;;;;;;10.38;82.07;99166.14;2080171;85;32992;-67
2022/12/23 12:13:32;;;;;;;10.13;6.10;;;;;;;10.44;82.06;99171.97;2081584;85;30514;-68
2022/12/23 12:17:09;;;;;;;8.63;4.78;;;;;;;10.50;81.92;99174.73;2076778;85;28422;-66
2022/12/23 12:20:31;;;;;;;8.10;4.87;;;;;;;10.57;81.96;99173.84;2050327;85;29106;-65
2022/12/23 12:23:53;;;;;;;4.92;3.65;;;;;;;10.63;81.66;99170.26;2015515;87;31223;-65
2022/12/23 12:27:00;;;;;;;6.37;4.22;;;;;;;10.65;81.29;99172.82;2081712;84;33962;-66
2022/12/23 12:30:05;;;;;;;6.20;4.25;;;;;;;10.62;81.34;99171.69;2048901;84;30419;-65
2022/12/23 12:33:25;;;;;;;6.95;4.42;;;;;;;10.65;81.45;99170.14;2060012;84;27722;-69
2022/12/23 12:37:21;;;;;;;8.33;4.10;;;;;;;10.69;81.57;99168.98;2082336;84;28199;-65
2022/12/23 12:40:43;;;;;;;5.90;4.15;;;;;;;10.74;81.65;99169.99;2085433;84;33450;-70
2022/12/23 12:44:14;;;;;;;6.75;4.10;;;;;;;10.77;81.65;99172.47;2085812;84;33789;-69
2022/12/23 12:47:27;;;;;;;7.70;4.08;;;;;;;10.81;81.61;99185.16;2082173;85;30536;-67
2022/12/23 12:50:36;;;;;;;9.55;4.33;;;;;;;10.84;81.67;99184.95;2082745;84;27813;-70
2022/12/23 12:53:43;;;;;;;8.53;4.00;;;;;;;10.85;81.50;99195.55;2066488;84;29975;-71
2022/12/23 12:56:52;;;;;;;6.33;4.65;;;;;;;10.84;81.46;99200.53;1950477;89;31263;-74
2022/12/23 12:59:56;;;;;;;5.25;3.67;;;;;;;10.83;81.39;99203.33;1949969;89;33228;-74
2022/12/23 13:03:25;;;;;;;7.37;4.20;;;;;;;10.79;81.32;99204.88;1949873;90;29338;-68
2022/12/23 13:06:57;;;;;;;10.50;4.78;;;;;;;10.76;81.20;99203.74;1955527;89;27812;-66
2022/12/23 13:10:04;;;;;;;8.45;5.72;;;;;;;10.72;80.97;99211.62;1950841;90;28249;-65
2022/12/23 13:13:19;;;;;;;11.28;6.35;;;;;;;10.67;80.99;99204.88;1941895;89;31148;-65
2022/12/23 13:16:47;;;;;;;8.90;5.40;;;;;;;10.70;81.06;99223.39;1949702;90;33054;-66
2022/12/23 13:19:58;;;;;;;7.15;4.65;;;;;;;10.71;81.10;99227.79;1950218;89;30197;-64
2022/12/23 13:23:07;;;;;;;8.83;4.58;;;;;;;10.72;81.13;99225.03;1961309;89;28332;-66
2022/12/23 13:26:36;;;;;;;8.18;4.55;;;;;;;10.73;81.06;99228.08;1945531;89;29943;-66
2022/12/23 13:30:03;;;;;;;9.10;5.17;;;;;;;10.72;81.07;99233.06;1952053;90;31052;-67
2022/12/23 13:33:19;;;;;;;11.53;6.80;;;;;;;10.73;80.99;99235.24;1967024;86;33001;-66
2022/12/23 13:36:41;;;;;;;10.38;5.25;;;;;;;10.72;80.96;99241.56;2045321;86;30778;-67
2022/12/23 13:39:51;;;;;;;8.20;4.95;;;;;;;10.70;80.95;99243.02;2045623;86;27781;-66
2022/12/23 13:42:59;;;;;;;6.83;4.45;;;;;;;10.72;80.91;99251.81;2044285;86;29904;-65
2022/12/23 13:46:02;;;;;;;9.88;5.47;;;;;;;10.73;80.91;99257.55;2045511;86;31281;-65
2022/12/23 13:49:13;;;;;;;6.62;3.60;;;;;;;10.71;80.87;99255.45;2004492;87;34234;-64
2022/12/23 13:52:38;;;;;;;6.17;4.28;;;;;;;10.71;80.72;99251.90;2045372;86;30515;-65
2022/12/23 13:56:27;;;;;;;5.15;4.20;;;;;;;10.70;80.75;99239.47;2066523;86;27726;-65
2022/12/23 13:59:42;;;;;;;7.47;4.25;;;;;;;10.69;80.68;99241.77;2060615;84;28805;-64
2022/12/23 14:03:00;;;;;;;8.28;4.25;;;;;;;10.65;80.58;99238.44;2064256;86;31954;-66
2022/12/23 14:06:35;;;;;;;6.85;4.40;;;;;;;10.64;80.61;99244.76;1942398;91;48515;-67
2022/12/23 14:09:38;;;;;;;6.78;4.08;;;;;;;10.62;80.57;99231.95;1920479;91;30405;-64
2022/12/23 14:12:41;;;;;;;7.72;4.75;;;;;;;10.60;80.57;99228.51;1948233;91;27736;-66
2022/12/23 14:16:00;;;;;;;14.50;6.53;;;;;;;10.60;80.54;99229.84;1920923;91;28702;-66
2022/12/23 14:19:37;;;;;;;14.10;8.18;;;;;;;10.58;80.61;99228.63;1921723;92;31935;-67
2022/12/23 14:22:57;;;;;;;12.28;7.20;;;;;;;10.56;80.61;99225.19;1890176;93;33462;-65
2022/12/23 14:26:10;;;;;;;13.18;7.87;;;;;;;10.55;80.54;99222.63;1945984;91;30757;-66
2022/12/23 14:29:52;;;;;;;12.30;7.92;;;;;;;10.51;80.53;99232.66;1920351;91;27904;-66
2022/12/23 14:32:59;;;;;;;16.75;9.18;;;;;;;10.48;80.54;99232.39;1945069;91;29090;-65
2022/12/23 14:36:25;;;;;;;14.18;6.75;;;;;;;10.47;80.52;99240.05;1920605;91;31956;-64
2022/12/23 14:39:32;;;;;;;9.65;5.15;;;;;;;10.44;80.45;99243.42;1904966;93;33415;-65
2022/12/23 14:42:41;;;;;;;8.43;4.83;;;;;;;10.39;80.46;99240.17;1952425;86;28452;-65
2022/12/23 14:45:44;;;;;;;8.08;5.08;;;;;;;10.37;80.49;99249.62;2037654;86;27754;-66
2022/12/23 14:48:51;;;;;;;7.60;4.50;;;;;;;10.34;80.60;99247.99;2037595;87;30620;-65
2022/12/23 14:52:01;;;;;;;7.67;5.40;;;;;;;10.30;80.89;99252.31;2037192;86;31477;-65
2022/12/23 14:55:30;;;;;;;15.20;8.80;;;;;;;10.27;81.05;99244.48;2029816;86;33140;-65
2022/12/23 14:58:46;;;;;;;10.93;6.47;;;;;;;10.25;81.20;99241.91;2037565;86;29554;-63
2022/12/23 15:01:57;;;;;;;7.62;5.28;;;;;;;10.23;81.27;99246.51;2037513;87;27656;-65
2022/12/23 15:04:59;;;;;;;8.40;6.10;;;;;;;10.22;81.38;99251.97;2037294;86;28476;-66
2022/12/23 15:08:01;;;;;;;8.30;5.42;;;;;;;10.21;81.47;99256.45;2036971;87;32276;-65